Time;durP1;ratioP1;P1;durP2;ratioP2;P2;SDS_P1;SDS_P2;PMS_P1;PMS_P2;Temp;Humidity;BMP_temperature;BMP_pressure;BME280_temperature;BME280_humidity;BME280_pressure;Samples;Min_cycle;Max_cycle;Signal;HPM_P1;HPM_P2
2021/12/19 00:00:28;;;;;;;6.72;5.65;;;;;;;5.46;87.46;102551.75;4776503;30;20131;-69
2021/12/19 00:03:48;;;;;;;9.73;5.65;;;;;;;5.41;87.22;102558.66;4769652;30;20054;-68
2021/12/19 00:10:13;;;;;;;7.78;6.10;;;;;;;5.16;88.78;102557.72;4768939;30;20054;-69
2021/12/19 00:13:17;;;;;;;6.50;5.10;;;;;;;5.35;88.13;102564.69;4769019;30;20109;-69
2021/12/19 00:16:20;;;;;;;;;;;;;;;5.40;87.75;102561.25;4769569;30;20071;-69
2021/12/19 00:19:24;;;;;;;12.60;10.00;;;;;;;5.35;88.16;102569.00;4768556;30;20134;-69
2021/12/19 00:22:27;;;;;;;6.82;5.38;;;;;;;5.42;87.49;102564.69;4750993;30;20052;-69
2021/12/19 00:25:31;;;;;;;7.03;5.30;;;;;;;5.44;87.81;102544.81;4751261;30;20116;-68
2021/12/19 00:28:34;;;;;;;;;;;;;;;5.43;87.99;102548.28;4751585;30;20113;-69
2021/12/19 00:31:37;;;;;;;6.45;4.72;;;;;;;5.40;88.29;102556.06;4751432;30;19925;-69
2021/12/19 00:34:41;;;;;;;6.57;5.43;;;;;;;5.46;88.16;102540.50;4754689;30;20478;-69
2021/12/19 00:37:45;;;;;;;;;;;;;;;5.34;88.68;102546.53;4755025;30;20133;-69
2021/12/19 00:40:48;;;;;;;7.20;5.47;;;;;;;5.40;88.30;102537.91;4754611;30;20301;-69
2021/12/19 00:44:06;;;;;;;7.10;5.55;;;;;;;5.51;88.21;102538.78;4754437;30;20051;-69
2021/12/19 00:47:09;;;;;;;7.15;5.68;;;;;;;5.50;88.14;102537.06;4754450;30;20537;-69
2021/12/19 00:50:13;;;;;;;;;;;;;;;5.49;87.99;102520.63;4755495;30;20106;-68
2021/12/19 00:53:19;;;;;;;7.65;5.40;;;;;;;5.59;87.49;102511.13;4754352;30;19995;-69
2021/12/19 00:56:22;;;;;;;6.30;5.43;;;;;;;5.39;88.33;102518.00;4754316;30;20059;-69
2021/12/19 00:59:25;;;;;;;;;;;;;;;5.26;88.69;102520.56;4754614;30;20051;-69
2021/12/19 01:02:28;;;;;;;10.30;5.65;;;;;;;5.34;89.02;102526.66;4754093;30;20408;-69
2021/12/19 01:05:35;;;;;;;7.50;5.63;;;;;;;5.51;88.06;102518.00;4753794;30;20047;-69
2021/12/19 01:08:39;;;;;;;8.27;6.00;;;;;;;5.58;87.68;102517.16;4763686;30;20074;-69
2021/12/19 01:11:42;;;;;;;8.35;7.00;;;;;;;5.58;87.58;102519.75;4754014;30;20139;-69
2021/12/19 01:14:45;;;;;;;;;;;;;;;5.55;87.48;102514.53;4754535;30;20055;-69
2021/12/19 01:17:49;;;;;;;8.60;6.63;;;;;;;5.55;87.40;102524.94;4753934;30;20009;-69
2021/12/19 01:20:53;;;;;;;8.80;6.93;;;;;;;5.51;87.44;102523.22;4754303;30;20427;-69
2021/12/19 01:23:56;;;;;;;8.40;6.72;;;;;;;5.55;86.96;102514.53;4753785;30;20101;-69
2021/12/19 01:26:59;;;;;;;;;;;;;;;5.42;86.73;102508.50;4754032;30;20082;-69
2021/12/19 01:30:05;;;;;;;9.05;6.78;;;;;;;5.47;86.90;102511.09;4753807;30;19928;-69
2021/12/19 01:33:09;;;;;;;8.65;7.10;;;;;;;5.51;87.12;102513.69;4757314;30;20050;-69
2021/12/19 01:36:12;;;;;;;;;;;;;;;5.27;85.95;102511.94;4771967;30;20465;-69
2021/12/19 01:39:16;;;;;;;10.75;8.57;;;;;;;5.51;86.58;102508.50;4771314;30;19961;-69
2021/12/19 01:42:20;;;;;;;;;;;;;;;5.54;86.19;102505.03;4771441;30;20054;-68
2021/12/19 01:45:34;;;;;;;11.75;9.57;;;;;;;5.56;86.14;102506.78;4771153;30;20020;-69
2021/12/19 01:48:37;;;;;;;12.95;10.45;;;;;;;5.43;85.51;102501.59;4770514;30;20120;-69
2021/12/19 01:51:41;;;;;;;11.55;10.00;;;;;;;5.46;86.25;102494.69;4771328;30;20108;-69
2021/12/19 01:54:46;;;;;;;10.60;9.35;;;;;;;5.56;86.03;102495.53;4771053;30;20057;-69
2021/12/19 01:57:49;;;;;;;14.07;10.45;;;;;;;5.51;85.62;102497.25;4771033;30;20120;-69
2021/12/19 02:00:55;;;;;;;12.02;10.40;;;;;;;5.60;85.56;102484.28;4770984;30;20139;-69
2021/12/19 02:03:59;;;;;;;12.23;10.35;;;;;;;5.52;85.25;102491.19;4770760;30;20064;-68
2021/12/19 02:07:02;;;;;;;;;;;;;;;5.28;84.72;102479.09;4771108;30;20054;-69
2021/12/19 02:10:08;;;;;;;12.40;10.20;;;;;;;5.51;84.85;102486.88;4770334;30;20338;-69
2021/12/19 02:13:14;;;;;;;13.30;10.77;;;;;;;5.57;84.14;102479.09;4770878;30;20426;-69
2021/12/19 02:16:19;;;;;;;11.15;9.68;;;;;;;5.57;84.87;102472.16;4770794;30;20050;-69
2021/12/19 02:19:24;;;;;;;12.25;10.13;;;;;;;5.65;85.06;102469.59;4770962;30;20062;-69
2021/12/19 02:22:27;;;;;;;12.00;9.52;;;;;;;5.62;85.82;102469.59;4770861;30;20051;-69
2021/12/19 02:25:32;;;;;;;;;;;;;;;5.66;84.84;102466.13;4770820;30;20053;-69
2021/12/19 02:28:35;;;;;;;12.38;10.23;;;;;;;5.72;85.19;102467.84;4770520;30;19929;-69
2021/12/19 02:31:39;;;;;;;;;;;;;;;5.61;85.65;102462.66;4770971;30;20427;-68
2021/12/19 02:34:44;;;;;;;;;;;;;;;5.56;86.03;102469.59;4770878;30;20301;-69
2021/12/19 02:38:27;;;;;;;13.23;8.27;;;;;;;5.59;85.91;102465.25;4770271;30;19971;-68
2021/12/19 02:51:12;;;;;;;11.20;9.20;;;;;;;5.58;86.46;102453.16;4752574;30;20106;-69
2021/12/19 02:54:16;;;;;;;;;;;;;;;5.57;86.61;102445.38;4751347;30;20052;-69
2021/12/19 02:57:19;;;;;;;10.85;9.07;;;;;;;5.64;86.72;102434.09;4752382;30;19924;-69
2021/12/19 03:00:25;;;;;;;12.00;9.93;;;;;;;5.65;86.94;102430.66;4752402;30;20668;-69
2021/12/19 03:03:28;;;;;;;11.98;10.15;;;;;;;5.68;86.63;102435.84;4752125;30;20109;-69
2021/12/19 03:06:32;;;;;;;11.55;9.27;;;;;;;5.62;86.29;102428.06;4751867;30;20063;-69
2021/12/19 03:19:25;;;;;;;14.02;8.73;;;;;;;5.72;86.66;102427.19;4769859;30;20129;-69
2021/12/19 03:22:28;;;;;;;;;;;;;;;5.71;86.34;102428.06;4775781;30;20100;-68
2021/12/19 03:25:32;;;;;;;10.68;8.60;;;;;;;5.71;86.31;102424.56;4777946;30;20020;-68
2021/12/19 03:28:36;;;;;;;13.63;8.45;;;;;;;5.64;86.47;102407.28;4769396;30;20209;-68
2021/12/19 03:31:39;;;;;;;;;;;;;;;5.64;86.94;102418.53;4770189;30;20135;-68
2021/12/19 03:34:42;;;;;;;11.35;9.07;;;;;;;5.64;86.93;102415.94;4769452;30;19940;-68
2021/12/19 03:37:47;;;;;;;16.50;9.55;;;;;;;5.50;87.38;102412.50;4769225;30;20526;-68
2021/12/19 03:41:07;;;;;;;10.60;9.02;;;;;;;5.45;87.63;102409.03;4769378;30;20046;-68
2021/12/19 03:44:11;;;;;;;13.00;9.13;;;;;;;5.57;87.35;102404.69;4769222;30;20524;-68
2021/12/19 03:47:14;;;;;;;15.45;10.05;;;;;;;5.54;87.15;102401.25;4769230;30;20055;-68
2021/12/19 03:50:22;;;;;;;13.52;9.23;;;;;;;5.65;86.96;102396.03;4776742;30;20061;-68
2021/12/19 03:53:25;;;;;;;12.60;10.38;;;;;;;5.62;86.53;102401.25;4778640;30;20392;-68
2021/12/19 03:56:28;;;;;;;11.95;9.98;;;;;;;5.71;86.55;102394.31;4771890;30;20042;-68
2021/12/19 03:59:32;;;;;;;11.60;9.82;;;;;;;5.73;86.70;102389.97;4772486;30;20120;-68
2021/12/19 04:02:36;;;;;;;13.93;9.85;;;;;;;5.58;86.86;102384.81;4772580;30;20473;-69
2021/12/19 04:05:39;;;;;;;17.77;11.38;;;;;;;5.59;87.47;102382.22;4768778;30;20599;-69
2021/12/19 04:08:43;;;;;;;14.13;10.57;;;;;;;5.62;87.14;102380.50;4768518;30;20430;-69
2021/12/19 04:11:49;;;;;;;12.50;9.88;;;;;;;5.71;86.73;102381.34;4783502;30;20054;-69
2021/12/19 04:14:53;;;;;;;14.52;9.20;;;;;;;5.61;87.01;102374.41;4786723;30;20064;-68
2021/12/19 04:17:56;;;;;;;13.00;10.05;;;;;;;5.50;87.50;102358.88;4786801;30;20128;-69
2021/12/19 04:21:00;;;;;;;12.38;9.52;;;;;;;5.53;87.64;102356.28;4786703;30;20089;-69
2021/12/19 04:24:03;;;;;;;12.15;9.82;;;;;;;5.67;86.80;102348.44;4786746;30;20120;-69
2021/12/19 04:27:07;;;;;;;13.73;9.85;;;;;;;5.64;87.00;102353.66;4786621;30;20464;-69
2021/12/19 04:30:13;;;;;;;13.45;9.77;;;;;;;5.62;87.00;102342.44;4786622;30;20563;-69
2021/12/19 04:33:17;;;;;;;13.38;10.35;;;;;;;5.69;86.69;102345.88;4786689;30;20050;-69
2021/12/19 04:36:23;;;;;;;14.52;10.80;;;;;;;5.73;86.75;102330.28;4786620;30;20050;-69
2021/12/19 04:39:38;;;;;;;12.50;9.18;;;;;;;5.70;86.62;102332.00;4774212;30;20082;-69
2021/12/19 05:02:58;;;;;;;16.35;10.93;;;;;;;5.60;87.13;102310.41;4751025;30;20072;-67
2021/12/19 05:06:14;;;;;;;15.18;11.10;;;;;;;5.54;87.55;102302.66;4750501;30;20065;-68
2021/12/19 05:16:02;;;;;;;15.82;10.23;;;;;;;5.70;87.33;102286.16;4750667;30;20114;-68
2021/12/19 05:19:22;;;;;;;15.40;10.18;;;;;;;5.65;87.62;102287.91;4772368;30;20148;-68
2021/12/19 05:22:28;;;;;;;14.98;10.40;;;;;;;5.68;87.31;102285.31;4771563;30;20081;-67
2021/12/19 05:25:31;;;;;;;15.07;10.07;;;;;;;5.68;87.44;102293.09;4771624;30;20457;-67
2021/12/19 05:28:35;;;;;;;;;;;;;;;5.65;87.39;102287.91;4772044;30;20055;-68
2021/12/19 05:31:38;;;;;;;15.30;10.30;;;;;;;5.63;87.30;102279.25;4769105;30;19934;-68
2021/12/19 05:34:41;;;;;;;17.08;11.75;;;;;;;5.71;87.21;102295.69;4767801;30;20050;-67
2021/12/19 05:47:51;;;;;;;37.55;24.80;;;;;;;5.72;87.02;102300.00;4767145;30;20047;-68
2021/12/19 05:50:55;;;;;;;17.38;12.68;;;;;;;5.62;87.57;102294.84;4767941;30;20070;-68
2021/12/19 05:53:58;;;;;;;18.35;13.43;;;;;;;5.76;87.50;102290.47;4768292;30;20190;-68
2021/12/19 05:57:01;;;;;;;17.98;14.02;;;;;;;5.83;87.00;102279.19;4784231;30;20050;-68
2021/12/19 06:00:08;;;;;;;22.38;14.80;;;;;;;5.85;86.68;102281.78;4784435;30;20058;-68
2021/12/19 06:03:12;;;;;;;18.77;13.63;;;;;;;5.79;87.12;102290.44;4784847;30;20063;-67
2021/12/19 06:06:15;;;;;;;21.27;12.77;;;;;;;5.82;87.14;102278.31;4784784;30;20075;-68
2021/12/19 06:09:19;;;;;;;23.30;14.55;;;;;;;5.77;87.82;102268.81;4784336;30;20062;-65
2021/12/19 06:12:22;;;;;;;;;;;;;;;5.83;87.36;102261.00;4784702;30;20121;-68
2021/12/19 06:15:25;;;;;;;16.50;11.95;;;;;;;5.79;87.73;102272.28;4785156;30;19928;-69
2021/12/19 06:18:28;;;;;;;24.02;16.02;;;;;;;5.71;87.83;102267.13;4766304;30;20109;-69
2021/12/19 06:21:32;;;;;;;;;;;;;;;5.49;88.76;102270.69;4767747;30;20063;-68
2021/12/19 06:24:35;;;;;;;23.95;17.33;;;;;;;5.73;88.10;102285.28;4765856;30;20275;-69
2021/12/19 06:27:39;;;;;;;27.23;18.58;;;;;;;5.63;88.27;102271.47;4759512;30;20038;-68
2021/12/19 06:30:43;;;;;;;25.67;17.50;;;;;;;5.78;87.75;102273.16;4759914;30;20105;-68
2021/12/19 06:33:46;;;;;;;24.15;16.85;;;;;;;5.82;87.66;102277.47;4766124;30;20135;-69
2021/12/19 06:36:53;;;;;;;22.90;15.07;;;;;;;5.88;87.43;102271.38;4766723;30;20047;-69
2021/12/19 06:39:56;;;;;;;27.25;18.98;;;;;;;5.66;87.60;102265.41;4764630;30;20196;-69
2021/12/19 06:43:00;;;;;;;;;;;;;;;5.72;87.53;102257.63;4767088;30;20105;-69
2021/12/19 06:46:03;;;;;;;21.45;15.38;;;;;;;5.90;87.57;102257.50;4767731;30;20160;-69
2021/12/19 06:49:07;;;;;;;;;;;;;;;5.92;87.25;102255.78;4761069;30;20054;-68
2021/12/19 06:52:13;;;;;;;22.58;16.55;;;;;;;5.99;86.39;102247.09;4778693;30;20083;-68
2021/12/19 06:55:18;;;;;;;22.73;16.35;;;;;;;6.04;86.31;102255.75;4765633;30;20055;-68
2021/12/19 06:58:21;;;;;;;26.75;16.48;;;;;;;6.11;86.62;102251.38;4767711;30;20436;-68
2021/12/19 07:01:24;;;;;;;;;;;;;;;6.16;86.23;102247.03;4766996;30;20563;-68
2021/12/19 07:04:27;;;;;;;23.50;16.17;;;;;;;6.15;86.62;102247.88;4765825;30;20232;-68
2021/12/19 07:07:31;;;;;;;;;;;;;;;6.14;86.22;102246.16;4765372;30;20332;-68
2021/12/19 07:10:35;;;;;;;20.00;15.13;;;;;;;6.11;86.53;102243.56;4765553;30;20137;-69
2021/12/19 07:13:38;;;;;;;23.75;16.60;;;;;;;5.94;86.88;102229.84;4765183;30;20452;-68
2021/12/19 07:16:42;;;;;;;;;;;;;;;6.00;86.78;102233.28;4765846;30;20046;-68
2021/12/19 07:19:45;;;;;;;23.42;15.38;;;;;;;5.92;87.30;102226.34;4766335;30;20017;-68
2021/12/19 07:22:49;;;;;;;22.70;15.95;;;;;;;5.87;88.05;102226.41;4765672;30;20425;-68
2021/12/19 07:25:52;;;;;;;28.77;20.00;;;;;;;5.95;87.62;102234.16;4765708;30;20132;-68
2021/12/19 07:28:57;;;;;;;20.80;15.48;;;;;;;5.92;87.56;102232.41;4765653;30;20425;-68
2021/12/19 07:32:00;;;;;;;20.45;15.07;;;;;;;5.99;86.92;102225.47;4764847;30;20108;-68
2021/12/19 07:35:05;;;;;;;;;;;;;;;6.06;86.91;102237.53;4766242;30;20132;-68
2021/12/19 07:38:11;;;;;;;19.48;15.10;;;;;;;5.99;86.85;102230.66;4761700;30;20609;-68
2021/12/19 07:41:14;;;;;;;19.35;14.48;;;;;;;6.01;87.20;102229.78;4761661;30;20058;-68
2021/12/19 07:44:17;;;;;;;;;;;;;;;6.15;86.91;102224.50;4768452;30;20081;-68
2021/12/19 07:47:20;;;;;;;20.02;15.02;;;;;;;6.16;86.68;102217.56;4764599;30;19945;-68
2021/12/19 07:50:24;;;;;;;22.60;16.13;;;;;;;6.17;86.03;102220.16;4766207;30;20077;-68
2021/12/19 07:53:27;;;;;;;17.63;14.73;;;;;;;6.26;86.18;102225.31;4765494;30;20050;-68
2021/12/19 07:56:31;;;;;;;24.75;16.27;;;;;;;6.15;86.32;102216.72;4747126;30;20055;-68
2021/12/19 07:59:34;;;;;;;22.02;16.15;;;;;;;6.21;86.07;102219.25;4757452;30;20100;-68
2021/12/19 08:02:38;;;;;;;;;;;;;;;6.12;86.10;102206.34;4770741;30;20059;-68
2021/12/19 08:05:41;;;;;;;20.30;15.40;;;;;;;6.17;85.72;102207.19;4770121;30;20395;-68
2021/12/19 08:08:50;;;;;;;;;;;;;;;6.15;85.68;102214.09;4786033;30;20094;-68
2021/12/19 08:11:55;;;;;;;18.58;14.27;;;;;;;6.19;85.73;102208.03;4785761;30;19990;-68
2021/12/19 08:14:59;;;;;;;21.13;14.70;;;;;;;6.17;85.29;102204.59;4772024;30;20120;-68
2021/12/19 08:18:02;;;;;;;;;;;;;;;6.25;84.98;102194.13;4763876;30;20116;-67
2021/12/19 08:21:05;;;;;;;21.58;15.43;;;;;;;6.33;85.24;102194.09;4772867;30;20010;-68
2021/12/19 08:24:11;;;;;;;18.55;15.55;;;;;;;6.42;84.74;102188.81;4768583;30;20090;-68
2021/12/19 08:27:15;;;;;;;22.33;14.75;;;;;;;6.33;84.93;102194.09;4786311;30;20579;-68
2021/12/19 08:30:20;;;;;;;19.65;14.80;;;;;;;6.42;85.38;102189.69;4786971;30;20062;-68
2021/12/19 08:33:23;;;;;;;17.98;14.65;;;;;;;6.49;84.39;102200.88;4786620;30;20058;-68
2021/12/19 08:36:26;;;;;;;;;;;;;;;6.50;84.48;102193.03;4781483;30;20043;-68
2021/12/19 08:39:33;;;;;;;23.42;16.90;;;;;;;6.51;84.93;102193.94;4762538;30;20393;-68
2021/12/19 08:42:36;;;;;;;21.38;16.17;;;;;;;6.54;84.02;102193.91;4771865;30;20108;-68
2021/12/19 08:45:40;;;;;;;;;;;;;;;6.49;84.52;102190.47;4777768;30;20066;-68
2021/12/19 08:48:43;;;;;;;20.20;15.15;;;;;;;6.54;84.60;102188.72;4780532;30;19948;-68
2021/12/19 08:51:47;;;;;;;20.10;15.68;;;;;;;6.55;84.09;102185.22;4768357;30;20189;-67
2021/12/19 08:54:50;;;;;;;;;;;;;;;6.57;83.99;102182.59;4780438;30;20135;-67
2021/12/19 08:57:53;;;;;;;24.75;16.45;;;;;;;6.30;82.88;102179.38;4782918;30;20288;-67
2021/12/19 09:01:01;;;;;;;;;;;;;;;6.35;83.08;102175.03;4773141;30;20525;-67
2021/12/19 09:04:05;;;;;;;22.05;17.45;;;;;;;6.48;82.22;102170.56;4776655;30;19978;-67
2021/12/19 09:07:09;;;;;;;28.45;24.52;;;;;;;6.44;82.15;102171.47;4774354;30;20139;-67
2021/12/19 09:10:12;;;;;;;;;;;;;;;6.39;81.40;102161.13;4772386;30;20104;-67
2021/12/19 09:13:15;;;;;;;29.73;23.38;;;;;;;6.44;81.95;102167.13;4775770;30;19937;-68
2021/12/19 09:16:19;;;;;;;23.25;19.42;;;;;;;6.52;82.01;102169.66;4771560;30;20043;-67
2021/12/19 09:19:22;;;;;;;29.30;22.90;;;;;;;6.29;81.60;102172.47;4767622;30;20518;-67
2021/12/19 09:22:25;;;;;;;;;;;;;;;6.34;81.06;102169.81;4767311;30;20500;-67
2021/12/19 09:25:28;;;;;;;23.50;18.10;;;;;;;6.33;81.12;102165.50;4767547;30;19940;-67
2021/12/19 09:28:31;;;;;;;;;;;;;;;6.40;81.18;102173.22;4772424;30;20058;-67
2021/12/19 09:31:35;;;;;;;18.40;15.20;;;;;;;6.07;81.62;102163.97;4770795;30;20399;-67
2021/12/19 09:34:38;;;;;;;19.27;15.57;;;;;;;6.15;81.76;102159.56;4764515;30;20401;-67
2021/12/19 09:37:41;;;;;;;29.58;23.48;;;;;;;6.16;81.76;102166.50;4777883;30;20050;-67
2021/12/19 09:40:46;;;;;;;26.60;21.50;;;;;;;6.38;82.06;102171.50;4767094;30;20533;-67
2021/12/19 09:43:49;;;;;;;46.42;36.65;;;;;;;6.54;80.91;102162.72;4778668;30;20109;-67
2021/12/19 09:46:52;;;;;;;;;;;;;;;6.66;79.97;102162.59;4774682;30;20051;-67
2021/12/19 09:49:57;;;;;;;30.33;23.67;;;;;;;6.74;80.07;102160.78;4766455;30;20030;-68
2021/12/19 09:53:00;;;;;;;30.83;24.67;;;;;;;6.53;80.15;102160.97;4769889;30;20055;-67
2021/12/19 09:56:05;;;;;;;23.13;17.33;;;;;;;6.25;80.58;102147.38;4769983;30;20055;-67
2021/12/19 09:59:26;;;;;;;21.13;16.38;;;;;;;6.33;81.11;102147.31;4749236;30;20680;-68
2021/12/19 10:02:29;;;;;;;24.10;19.38;;;;;;;6.17;81.51;102131.84;4763241;30;20144;-68
2021/12/19 10:05:33;;;;;;;;;;;;;;;6.28;81.39;102139.56;4776003;30;20126;-68
2021/12/19 10:08:36;;;;;;;23.77;18.00;;;;;;;6.43;81.01;102141.16;4784848;30;19979;-68
2021/12/19 10:11:54;;;;;;;;;;;;;;;6.55;80.54;102138.44;4766932;30;20074;-68
2021/12/19 10:14:58;;;;;;;21.73;17.15;;;;;;;6.69;80.49;102140.91;4765774;30;19928;-68
2021/12/19 10:18:08;;;;;;;;;;;;;;;6.55;80.26;102143.66;4767292;30;20246;-67
2021/12/19 10:21:19;;;;;;;20.33;16.70;;;;;;;6.29;81.13;102131.75;4767375;30;19924;-68
2021/12/19 10:24:32;;;;;;;21.40;17.60;;;;;;;6.42;80.97;102113.47;4767146;30;20098;-67
2021/12/19 10:27:38;;;;;;;21.92;17.83;;;;;;;6.68;80.56;102116.66;4766110;30;20055;-67
2021/12/19 10:30:46;;;;;;;20.75;18.10;;;;;;;6.78;80.24;102108.75;4770669;30;20317;-68
2021/12/19 10:33:49;;;;;;;22.10;17.92;;;;;;;6.43;80.38;102113.44;4765878;30;20066;-67
2021/12/19 10:36:52;;;;;;;24.98;20.05;;;;;;;6.38;80.90;102098.75;4766443;30;20038;-68
2021/12/19 10:39:58;;;;;;;;;;;;;;;6.42;80.16;102100.47;4769276;30;20161;-67
2021/12/19 10:43:04;;;;;;;33.20;26.40;;;;;;;6.45;80.46;102090.91;4783361;30;19921;-68
2021/12/19 10:46:08;;;;;;;26.88;22.33;;;;;;;6.48;80.52;102095.22;4775011;30;20058;-69
2021/12/19 10:49:32;;;;;;;24.08;20.08;;;;;;;6.34;80.82;102084.09;4765524;30;20116;-67
2021/12/19 10:52:38;;;;;;;17.35;14.43;;;;;;;6.03;81.42;102072.25;4765458;30;20123;-67
2021/12/19 10:55:46;;;;;;;16.55;14.15;;;;;;;5.90;81.10;102069.72;4778385;30;20054;-67
2021/12/19 10:58:56;;;;;;;17.45;14.93;;;;;;;6.09;81.63;102062.66;4782705;30;20127;-68
2021/12/19 11:02:00;;;;;;;23.33;19.52;;;;;;;5.97;81.32;102063.66;4781667;30;20062;-67
2021/12/19 11:05:04;;;;;;;20.20;15.15;;;;;;;6.02;81.53;102070.50;4783178;30;20046;-67
2021/12/19 11:08:09;;;;;;;19.63;14.93;;;;;;;6.13;80.33;102057.44;4785004;30;20104;-67
2021/12/19 11:11:33;;;;;;;17.55;14.35;;;;;;;6.21;80.11;102054.78;4776742;30;20059;-67
2021/12/19 11:14:43;;;;;;;17.13;13.63;;;;;;;6.13;80.38;102047.06;4769288;30;20113;-67
2021/12/19 11:17:46;;;;;;;20.25;15.57;;;;;;;6.18;81.00;102045.25;4768066;30;20139;-67
2021/12/19 11:20:50;;;;;;;19.90;16.30;;;;;;;6.08;81.29;102033.25;4769887;30;20140;-67
2021/12/19 11:23:53;;;;;;;20.13;13.48;;;;;;;5.88;81.12;102035.16;4769787;30;20054;-67
2021/12/19 11:26:59;;;;;;;18.58;14.60;;;;;;;5.85;82.15;102036.03;4769682;30;20109;-67
2021/12/19 11:30:03;;;;;;;23.25;16.98;;;;;;;5.94;82.22;102024.75;4769563;30;20058;-67
2021/12/19 11:33:31;;;;;;;20.10;15.25;;;;;;;6.03;81.65;102014.25;4769212;30;20529;-67
2021/12/19 11:36:44;;;;;;;29.23;20.25;;;;;;;6.10;81.42;102008.13;4769483;30;20136;-67
2021/12/19 11:39:53;;;;;;;20.83;16.02;;;;;;;6.24;80.85;101997.59;4769373;30;20105;-67
2021/12/19 11:43:04;;;;;;;20.63;15.45;;;;;;;6.16;81.15;102002.88;4769157;30;20064;-67
2021/12/19 11:46:17;;;;;;;20.83;15.50;;;;;;;6.08;81.68;101996.91;4769336;30;20062;-67
2021/12/19 11:49:24;;;;;;;24.05;16.90;;;;;;;6.02;81.91;102002.16;4769268;30;20055;-67
2021/12/19 11:52:30;;;;;;;22.30;17.02;;;;;;;5.97;81.83;101993.56;4769211;30;20060;-67
2021/12/19 11:55:36;;;;;;;23.83;16.80;;;;;;;5.82;82.04;101999.72;4769195;30;20112;-67
2021/12/19 11:58:44;;;;;;;19.42;14.50;;;;;;;5.83;82.24;101986.69;4774609;30;20042;-67
2021/12/19 12:01:48;;;;;;;18.10;13.35;;;;;;;6.00;81.68;101977.94;4768952;30;20142;-67
2021/12/19 12:05:10;;;;;;;;;;;;;;;5.65;82.45;101979.09;4769176;30;20100;-67
2021/12/19 12:08:19;;;;;;;18.70;14.80;;;;;;;5.75;82.21;101978.13;4782299;30;20387;-67
2021/12/19 12:11:22;;;;;;;17.85;12.07;;;;;;;5.75;82.44;101979.88;4768791;30;20075;-67
2021/12/19 12:14:34;;;;;;;15.18;11.65;;;;;;;5.66;82.08;101974.78;4769092;30;20058;-67
2021/12/19 12:17:44;;;;;;;18.42;13.57;;;;;;;5.81;81.93;101967.72;4769065;30;20090;-67
2021/12/19 12:20:48;;;;;;;13.30;9.98;;;;;;;6.03;80.06;101963.19;4769186;30;20537;-67
2021/12/19 12:24:03;;;;;;;;;;;;;;;5.88;81.23;101963.31;4769280;30;20087;-67
2021/12/19 12:27:12;;;;;;;16.48;13.27;;;;;;;6.15;80.05;101946.59;4768559;30;19928;-66
2021/12/19 12:30:21;;;;;;;11.10;9.43;;;;;;;5.86;80.33;101948.63;4772601;30;20344;-67
2021/12/19 12:33:26;;;;;;;11.07;9.15;;;;;;;5.75;81.31;101944.41;4771999;30;20625;-67
2021/12/19 12:36:30;;;;;;;8.30;6.70;;;;;;;5.77;80.00;101939.19;4772370;30;20598;-67
2021/12/19 12:39:38;;;;;;;7.43;6.07;;;;;;;5.94;80.08;101939.91;4772326;30;20100;-67
2021/12/19 12:43:01;;;;;;;8.57;7.13;;;;;;;6.18;79.27;101941.38;4771367;30;20129;-67
2021/12/19 12:46:16;;;;;;;7.63;6.07;;;;;;;5.86;79.25;101933.91;4772243;30;20055;-67
2021/12/19 12:49:25;;;;;;;7.15;5.72;;;;;;;5.60;80.05;101924.63;4772420;30;20116;-67
2021/12/19 12:52:28;;;;;;;8.15;5.60;;;;;;;5.73;80.57;101927.97;4772207;30;20506;-67
2021/12/19 12:55:32;;;;;;;6.22;5.25;;;;;;;5.87;80.12;101927.84;4771988;30;20078;-67
2021/12/19 12:58:36;;;;;;;;;;;;;;;5.57;80.74;101918.63;4772514;30;20192;-66
2021/12/19 13:01:46;;;;;;;4.65;3.58;;;;;;;5.91;79.62;101910.50;4790174;30;20394;-67
2021/12/19 13:04:51;;;;;;;11.00;6.95;;;;;;;5.83;79.77;101908.81;4789841;30;20049;-67
2021/12/19 13:07:54;;;;;;;10.05;6.38;;;;;;;5.65;79.81;101903.84;4789797;30;20111;-67
2021/12/19 13:10:58;;;;;;;8.35;4.85;;;;;;;5.55;79.93;101908.28;4781950;30;20112;-67
2021/12/19 13:14:25;;;;;;;9.35;5.00;;;;;;;5.59;79.89;101922.94;4771771;30;20525;-67
2021/12/19 13:17:32;;;;;;;10.80;6.28;;;;;;;5.50;80.15;101915.22;4771672;30;20126;-67
2021/12/19 13:20:36;;;;;;;6.63;4.72;;;;;;;5.53;80.45;101910.00;4771905;30;20054;-67
2021/12/19 13:23:40;;;;;;;6.68;4.45;;;;;;;5.64;80.54;101902.09;4771636;30;20109;-68
2021/12/19 13:26:43;;;;;;;6.13;4.40;;;;;;;5.68;80.18;101898.63;4771573;30;20134;-67
2021/12/19 13:30:05;;;;;;;;;;;;;;;5.81;79.90;101899.38;4772240;30;20550;-67
2021/12/19 13:33:11;;;;;;;7.88;5.60;;;;;;;5.93;79.49;101888.00;4770730;30;20349;-67
2021/12/19 13:36:14;;;;;;;10.82;8.05;;;;;;;5.74;80.03;101892.50;4771759;30;20042;-67
2021/12/19 13:39:18;;;;;;;8.48;5.78;;;;;;;5.70;80.26;101883.03;4770790;30;20073;-67
2021/12/19 13:42:21;;;;;;;12.18;7.32;;;;;;;5.69;79.92;101883.91;4768603;30;20541;-67
2021/12/19 13:45:26;;;;;;;;;;;;;;;5.63;79.86;101877.03;4772175;30;20093;-68
2021/12/19 13:48:38;;;;;;;4.80;2.83;;;;;;;5.60;80.19;101874.47;4771186;30;19938;-67
2021/12/19 13:51:42;;;;;;;7.22;4.00;;;;;;;5.55;80.59;101873.66;4771366;30;20265;-67
2021/12/19 13:54:47;;;;;;;5.53;4.32;;;;;;;5.68;80.39;101864.00;4771103;30;20050;-68
2021/12/19 13:58:04;;;;;;;6.25;4.70;;;;;;;5.70;80.35;101864.88;4771145;30;20305;-67
2021/12/19 14:01:19;;;;;;;5.70;4.00;;;;;;;5.62;80.37;101862.38;4770350;30;20055;-67
2021/12/19 14:04:24;;;;;;;16.88;8.65;;;;;;;5.65;80.09;101866.63;4770923;30;20055;-67
2021/12/19 14:07:31;;;;;;;6.75;3.55;;;;;;;5.52;80.91;101855.53;4769639;30;20105;-68
2021/12/19 14:10:34;;;;;;;7.60;4.55;;;;;;;5.56;81.06;101852.03;4752452;30;20113;-67
2021/12/19 14:13:41;;;;;;;6.25;3.75;;;;;;;5.65;81.18;101859.75;4751714;30;20559;-67
2021/12/19 14:16:46;;;;;;;5.35;3.45;;;;;;;5.68;80.53;101856.22;4753068;30;20074;-67
2021/12/19 14:19:51;;;;;;;10.18;7.53;;;;;;;5.97;80.27;101853.34;4752955;30;20050;-67
2021/12/19 14:23:14;;;;;;;5.97;3.58;;;;;;;5.88;79.81;101848.25;4752737;30;20047;-67
2021/12/19 14:26:26;;;;;;;10.60;8.05;;;;;;;5.93;79.02;101841.28;4753003;30;20352;-67
2021/12/19 14:29:29;;;;;;;7.90;6.68;;;;;;;5.90;79.76;101843.88;4752865;30;20105;-67
2021/12/19 14:32:44;;;;;;;;;;;;;;;6.00;79.65;101838.59;4756731;30;20046;-68
2021/12/19 14:35:51;;;;;;;7.00;4.70;;;;;;;6.11;79.37;101843.66;4752846;30;20419;-68
2021/12/19 14:39:01;;;;;;;5.30;4.35;;;;;;;6.15;79.35;101842.72;4770462;30;20461;-68
2021/12/19 14:42:11;;;;;;;5.22;4.55;;;;;;;6.02;79.11;101838.56;4770424;30;20064;-68
2021/12/19 14:45:23;;;;;;;6.07;4.22;;;;;;;6.06;79.39;101842.84;4779930;30;20061;-64
2021/12/19 14:48:36;;;;;;;4.40;3.78;;;;;;;6.25;78.57;101838.25;4770147;30;20138;-68
2021/12/19 14:51:39;;;;;;;5.28;4.28;;;;;;;6.16;79.23;101836.66;4763206;30;20054;-68
2021/12/19 14:54:42;;;;;;;;;;;;;;;5.80;80.00;101837.94;4774983;30;20054;-68
2021/12/19 14:57:45;;;;;;;7.55;5.78;;;;;;;5.81;79.92;101837.94;4797571;29;19948;-68
2021/12/19 15:00:53;;;;;;;7.07;5.15;;;;;;;5.69;80.25;101830.28;4787843;30;20104;-68
2021/12/19 15:04:07;;;;;;;5.88;5.25;;;;;;;5.81;79.98;101822.34;4770905;30;20074;-68
2021/12/19 15:07:12;;;;;;;6.07;5.47;;;;;;;5.95;80.22;101823.94;4775034;30;20067;-68
2021/12/19 15:10:17;;;;;;;5.55;4.95;;;;;;;6.05;79.91;101812.56;4772012;30;20580;-68
2021/12/19 15:13:22;;;;;;;6.93;5.65;;;;;;;6.23;79.13;101808.88;4762935;30;20101;-68
2021/12/19 15:16:25;;;;;;;8.45;6.60;;;;;;;6.14;78.91;101809.84;4770538;30;20126;-68
2021/12/19 15:19:29;;;;;;;;;;;;;;;5.87;79.84;101826.63;4769388;30;20597;-68
2021/12/19 15:22:33;;;;;;;8.27;7.25;;;;;;;5.82;80.67;101805.03;4765157;30;19924;-68
2021/12/19 15:25:36;;;;;;;10.13;8.77;;;;;;;5.99;79.81;101820.44;4774376;30;20082;-68
2021/12/19 15:28:41;;;;;;;11.00;8.05;;;;;;;5.86;79.58;101798.91;4783608;30;20467;-68
2021/12/19 15:31:44;;;;;;;10.65;7.72;;;;;;;5.95;79.91;101796.25;4778961;30;20094;-68
2021/12/19 15:34:47;;;;;;;;;;;;;;;5.80;80.69;101802.44;4777409;30;20570;-68
2021/12/19 15:37:51;;;;;;;8.30;7.30;;;;;;;5.95;80.54;101801.44;4779198;30;19925;-68